sensor_id;sensor_type;location;lat;lon;timestamp;P1;durP1;ratioP1;P2;durP2;ratioP2
55112;SDS011;41006;50.920;3.456;2023-03-11T00:00:00;19.85;;;17.92;;
55112;SDS011;41006;50.920;3.456;2023-03-11T00:00:34;20.63;;;17.23;;
55112;SDS011;41006;50.920;3.456;2023-03-11T00:01:05;21.25;;;17.15;;
55112;SDS011;41006;50.920;3.456;2023-03-11T00:01:35;22.50;;;16.35;;
55112;SDS011;41006;50.920;3.456;2023-03-11T00:02:07;18.25;;;16.17;;
55112;SDS011;41006;50.920;3.456;2023-03-11T00:02:40;19.73;;;15.38;;
55112;SDS011;41006;50.920;3.456;2023-03-11T00:03:11;20.42;;;14.65;;
55112;SDS011;41006;50.920;3.456;2023-03-11T00:03:42;15.95;;;14.30;;
55112;SDS011;41006;50.920;3.456;2023-03-11T00:04:12;15.52;;;14.15;;
55112;SDS011;41006;50.920;3.456;2023-03-11T00:04:42;18.52;;;15.07;;
55112;SDS011;41006;50.920;3.456;2023-03-11T00:05:17;19.58;;;15.63;;
55112;SDS011;41006;50.920;3.456;2023-03-11T00:05:47;17.63;;;14.77;;
55112;SDS011;41006;50.920;3.456;2023-03-11T00:06:18;19.02;;;14.18;;
55112;SDS011;41006;50.920;3.456;2023-03-11T00:06:51;15.88;;;14.18;;
55112;SDS011;41006;50.920;3.456;2023-03-11T00:07:21;15.15;;;13.82;;
55112;SDS011;41006;50.920;3.456;2023-03-11T00:07:54;19.50;;;14.68;;
55112;SDS011;41006;50.920;3.456;2023-03-11T00:08:24;16.00;;;14.05;;
55112;SDS011;41006;50.920;3.456;2023-03-11T00:08:57;22.80;;;15.98;;
55112;SDS011;41006;50.920;3.456;2023-03-11T00:09:27;16.02;;;13.73;;
55112;SDS011;41006;50.920;3.456;2023-03-11T00:09:58;14.52;;;13.13;;
55112;SDS011;41006;50.920;3.456;2023-03-11T00:10:31;15.57;;;14.18;;
55112;SDS011;41006;50.920;3.456;2023-03-11T00:11:04;15.20;;;13.98;;
55112;SDS011;41006;50.920;3.456;2023-03-11T00:11:35;20.23;;;15.35;;
55112;SDS011;41006;50.920;3.456;2023-03-11T00:12:05;15.40;;;14.18;;
55112;SDS011;41006;50.920;3.456;2023-03-11T00:12:35;19.90;;;14.52;;
55112;SDS011;41006;50.920;3.456;2023-03-11T00:13:06;15.77;;;14.30;;
55112;SDS011;41006;50.920;3.456;2023-03-11T00:13:39;17.77;;;13.45;;
55112;SDS011;41006;50.920;3.456;2023-03-11T00:14:12;14.93;;;13.60;;
55112;SDS011;41006;50.920;3.456;2023-03-11T00:14:45;16.30;;;14.50;;
55112;SDS011;41006;50.920;3.456;2023-03-11T00:15:15;15.82;;;14.38;;
55112;SDS011;41006;50.920;3.456;2023-03-11T00:15:47;16.40;;;14.85;;
55112;SDS011;41006;50.920;3.456;2023-03-11T00:16:19;16.20;;;14.95;;
55112;SDS011;41006;50.920;3.456;2023-03-11T00:16:50;16.58;;;15.18;;
55112;SDS011;41006;50.920;3.456;2023-03-11T00:17:20;16.25;;;14.55;;
55112;SDS011;41006;50.920;3.456;2023-03-11T00:17:50;15.90;;;14.55;;
55112;SDS011;41006;50.920;3.456;2023-03-11T00:18:21;16.17;;;14.75;;
55112;SDS011;41006;50.920;3.456;2023-03-11T00:18:59;16.35;;;14.55;;
55112;SDS011;41006;50.920;3.456;2023-03-11T00:19:29;16.88;;;14.20;;
55112;SDS011;41006;50.920;3.456;2023-03-11T00:19:59;14.93;;;13.65;;
55112;SDS011;41006;50.920;3.456;2023-03-11T00:20:30;14.20;;;13.10;;
55112;SDS011;41006;50.920;3.456;2023-03-11T00:21:03;14.98;;;13.75;;
55112;SDS011;41006;50.920;3.456;2023-03-11T00:21:34;14.50;;;13.23;;
55112;SDS011;41006;50.920;3.456;2023-03-11T00:22:04;14.32;;;13.23;;
55112;SDS011;41006;50.920;3.456;2023-03-11T00:22:36;15.35;;;14.02;;
55112;SDS011;41006;50.920;3.456;2023-03-11T00:23:07;15.05;;;13.88;;
55112;SDS011;41006;50.920;3.456;2023-03-11T00:23:40;15.75;;;14.13;;
55112;SDS011;41006;50.920;3.456;2023-03-11T00:24:13;16.30;;;14.98;;
55112;SDS011;41006;50.920;3.456;2023-03-11T00:24:43;16.30;;;15.05;;
55112;SDS011;41006;50.920;3.456;2023-03-11T00:25:13;17.17;;;15.50;;
55112;SDS011;41006;50.920;3.456;2023-03-11T00:25:44;17.73;;;16.30;;
55112;SDS011;41006;50.920;3.456;2023-03-11T00:26:14;17.77;;;16.42;;
55112;SDS011;41006;50.920;3.456;2023-03-11T00:26:45;16.95;;;15.25;;
55112;SDS011;41006;50.920;3.456;2023-03-11T00:27:17;16.83;;;15.13;;
55112;SDS011;41006;50.920;3.456;2023-03-11T00:27:50;17.52;;;15.75;;
55112;SDS011;41006;50.920;3.456;2023-03-11T00:28:23;15.75;;;14.85;;
55112;SDS011;41006;50.920;3.456;2023-03-11T00:28:55;17.17;;;15.73;;
55112;SDS011;41006;50.920;3.456;2023-03-11T00:29:25;15.07;;;14.00;;
55112;SDS011;41006;50.920;3.456;2023-03-11T00:29:56;15.43;;;14.07;;
55112;SDS011;41006;50.920;3.456;2023-03-11T00:30:28;16.92;;;15.32;;
55112;SDS011;41006;50.920;3.456;2023-03-11T00:31:01;16.70;;;15.43;;
55112;SDS011;41006;50.920;3.456;2023-03-11T00:31:34;17.92;;;16.13;;
55112;SDS011;41006;50.920;3.456;2023-03-11T00:32:06;18.38;;;16.90;;
55112;SDS011;41006;50.920;3.456;2023-03-11T00:32:37;18.60;;;16.92;;
55112;SDS011;41006;50.920;3.456;2023-03-11T00:33:12;17.55;;;16.20;;
55112;SDS011;41006;50.920;3.456;2023-03-11T00:33:45;16.85;;;15.38;;
55112;SDS011;41006;50.920;3.456;2023-03-11T00:34:18;18.08;;;16.23;;
55112;SDS011;41006;50.920;3.456;2023-03-11T00:34:49;17.23;;;15.75;;
55112;SDS011;41006;50.920;3.456;2023-03-11T00:35:23;16.83;;;15.27;;
55112;SDS011;41006;50.920;3.456;2023-03-11T00:35:56;17.48;;;16.42;;
55112;SDS011;41006;50.920;3.456;2023-03-11T00:36:27;18.52;;;16.60;;
55112;SDS011;41006;50.920;3.456;2023-03-11T00:37:00;16.08;;;14.75;;
55112;SDS011;41006;50.920;3.456;2023-03-11T00:37:30;16.45;;;15.10;;
55112;SDS011;41006;50.920;3.456;2023-03-11T00:38:02;17.50;;;16.10;;
55112;SDS011;41006;50.920;3.456;2023-03-11T00:38:32;16.20;;;14.73;;
55112;SDS011;41006;50.920;3.456;2023-03-11T00:39:03;17.38;;;15.23;;
55112;SDS011;41006;50.920;3.456;2023-03-11T00:39:36;17.77;;;14.60;;
55112;SDS011;41006;50.920;3.456;2023-03-11T00:40:09;15.93;;;14.73;;
55112;SDS011;41006;50.920;3.456;2023-03-11T00:40:44;17.23;;;15.48;;
55112;SDS011;41006;50.920;3.456;2023-03-11T00:41:15;16.60;;;15.15;;
55112;SDS011;41006;50.920;3.456;2023-03-11T00:41:45;20.65;;;15.02;;
55112;SDS011;41006;50.920;3.456;2023-03-11T00:42:17;16.83;;;15.32;;
55112;SDS011;41006;50.920;3.456;2023-03-11T00:42:48;16.75;;;15.30;;
55112;SDS011;41006;50.920;3.456;2023-03-11T00:43:18;20.05;;;15.38;;
55112;SDS011;41006;50.920;3.456;2023-03-11T00:43:51;17.30;;;15.35;;
55112;SDS011;41006;50.920;3.456;2023-03-11T00:44:22;17.25;;;14.35;;
55112;SDS011;41006;50.920;3.456;2023-03-11T00:44:52;15.38;;;13.70;;
55112;SDS011;41006;50.920;3.456;2023-03-11T00:45:25;16.77;;;14.60;;
55112;SDS011;41006;50.920;3.456;2023-03-11T00:45:56;15.43;;;14.02;;
55112;SDS011;41006;50.920;3.456;2023-03-11T00:46:29;18.55;;;14.02;;
55112;SDS011;41006;50.920;3.456;2023-03-11T00:47:00;14.82;;;13.48;;
55112;SDS011;41006;50.920;3.456;2023-03-11T00:47:30;17.48;;;13.95;;
55112;SDS011;41006;50.920;3.456;2023-03-11T00:48:01;16.08;;;14.48;;
55112;SDS011;41006;50.920;3.456;2023-03-11T00:48:31;16.85;;;15.20;;
55112;SDS011;41006;50.920;3.456;2023-03-11T00:49:01;17.83;;;16.20;;
55112;SDS011;41006;50.920;3.456;2023-03-11T00:49:32;16.05;;;14.52;;
55112;SDS011;41006;50.920;3.456;2023-03-11T00:50:05;19.60;;;15.90;;
55112;SDS011;41006;50.920;3.456;2023-03-11T00:50:36;17.33;;;16.13;;
55112;SDS011;41006;50.920;3.456;2023-03-11T00:51:13;17.90;;;16.25;;
55112;SDS011;41006;50.920;3.456;2023-03-11T00:51:43;18.23;;;16.42;;
55112;SDS011;41006;50.920;3.456;2023-03-11T00:52:16;17.77;;;15.70;;
55112;SDS011;41006;50.920;3.456;2023-03-11T00:52:47;17.17;;;15.65;;
55112;SDS011;41006;50.920;3.456;2023-03-11T00:53:20;16.60;;;15.35;;
55112;SDS011;41006;50.920;3.456;2023-03-11T00:53:51;18.35;;;16.50;;
55112;SDS011;41006;50.920;3.456;2023-03-11T00:54:23;17.23;;;15.52;;
55112;SDS011;41006;50.920;3.456;2023-03-11T00:54:54;17.23;;;15.85;;
55112;SDS011;41006;50.920;3.456;2023-03-11T00:55:28;17.20;;;15.80;;
55112;SDS011;41006;50.920;3.456;2023-03-11T00:55:58;18.23;;;16.70;;
55112;SDS011;41006;50.920;3.456;2023-03-11T00:56:35;17.88;;;16.38;;
55112;SDS011;41006;50.920;3.456;2023-03-11T00:57:05;18.77;;;17.08;;
55112;SDS011;41006;50.920;3.456;2023-03-11T00:57:35;18.35;;;17.13;;
55112;SDS011;41006;50.920;3.456;2023-03-11T00:58:05;18.65;;;16.98;;
55112;SDS011;41006;50.920;3.456;2023-03-11T00:58:36;19.50;;;17.63;;
55112;SDS011;41006;50.920;3.456;2023-03-11T00:59:06;19.00;;;17.38;;
55112;SDS011;41006;50.920;3.456;2023-03-11T00:59:36;19.48;;;17.52;;
55112;SDS011;41006;50.920;3.456;2023-03-11T01:00:11;18.30;;;16.33;;
55112;SDS011;41006;50.920;3.456;2023-03-11T01:00:42;18.77;;;16.95;;
55112;SDS011;41006;50.920;3.456;2023-03-11T01:01:13;18.63;;;16.80;;
55112;SDS011;41006;50.920;3.456;2023-03-11T01:01:44;19.23;;;17.38;;
55112;SDS011;41006;50.920;3.456;2023-03-11T01:02:14;17.77;;;16.58;;
55112;SDS011;41006;50.920;3.456;2023-03-11T01:02:50;19.27;;;17.45;;
55112;SDS011;41006;50.920;3.456;2023-03-11T01:03:20;18.92;;;17.63;;
55112;SDS011;41006;50.920;3.456;2023-03-11T01:03:53;20.60;;;17.20;;
55112;SDS011;41006;50.920;3.456;2023-03-11T01:04:23;20.15;;;17.27;;
55112;SDS011;41006;50.920;3.456;2023-03-11T01:04:58;16.80;;;15.55;;
55112;SDS011;41006;50.920;3.456;2023-03-11T01:05:31;17.27;;;16.13;;
55112;SDS011;41006;50.920;3.456;2023-03-11T01:06:02;18.58;;;16.90;;
55112;SDS011;41006;50.920;3.456;2023-03-11T01:06:37;17.80;;;16.10;;
55112;SDS011;41006;50.920;3.456;2023-03-11T01:07:07;18.77;;;16.20;;
55112;SDS011;41006;50.920;3.456;2023-03-11T01:07:37;15.77;;;14.80;;
55112;SDS011;41006;50.920;3.456;2023-03-11T01:08:10;18.00;;;16.40;;
55112;SDS011;41006;50.920;3.456;2023-03-11T01:08:40;18.20;;;16.55;;
55112;SDS011;41006;50.920;3.456;2023-03-11T01:09:11;17.52;;;15.95;;
55112;SDS011;41006;50.920;3.456;2023-03-11T01:09:41;17.15;;;15.73;;
55112;SDS011;41006;50.920;3.456;2023-03-11T01:10:11;16.88;;;15.43;;
55112;SDS011;41006;50.920;3.456;2023-03-11T01:10:44;18.80;;;17.10;;
55112;SDS011;41006;50.920;3.456;2023-03-11T01:11:17;18.17;;;16.58;;
55112;SDS011;41006;50.920;3.456;2023-03-11T01:11:47;18.05;;;16.38;;
55112;SDS011;41006;50.920;3.456;2023-03-11T01:12:19;18.52;;;16.98;;
55112;SDS011;41006;50.920;3.456;2023-03-11T01:12:52;18.00;;;16.52;;
55112;SDS011;41006;50.920;3.456;2023-03-11T01:13:27;19.17;;;17.50;;
55112;SDS011;41006;50.920;3.456;2023-03-11T01:14:00;19.98;;;17.27;;
55112;SDS011;41006;50.920;3.456;2023-03-11T01:14:30;19.38;;;17.50;;
55112;SDS011;41006;50.920;3.456;2023-03-11T01:15:03;19.52;;;17.92;;
55112;SDS011;41006;50.920;3.456;2023-03-11T01:15:35;19.00;;;17.02;;
55112;SDS011;41006;50.920;3.456;2023-03-11T01:16:05;17.77;;;16.67;;
55112;SDS011;41006;50.920;3.456;2023-03-11T01:16:40;18.55;;;16.92;;
55112;SDS011;41006;50.920;3.456;2023-03-11T01:17:13;19.20;;;17.15;;
55112;SDS011;41006;50.920;3.456;2023-03-11T01:17:46;17.60;;;16.20;;
55112;SDS011;41006;50.920;3.456;2023-03-11T01:18:19;19.48;;;17.73;;
55112;SDS011;41006;50.920;3.456;2023-03-11T01:18:49;20.65;;;18.67;;
55112;SDS011;41006;50.920;3.456;2023-03-11T01:19:20;20.02;;;18.20;;
55112;SDS011;41006;50.920;3.456;2023-03-11T01:19:50;19.48;;;17.98;;
55112;SDS011;41006;50.920;3.456;2023-03-11T01:20:22;20.98;;;19.23;;
55112;SDS011;41006;50.920;3.456;2023-03-11T01:20:53;20.00;;;18.45;;
55112;SDS011;41006;50.920;3.456;2023-03-11T01:21:26;20.52;;;18.80;;
55112;SDS011;41006;50.920;3.456;2023-03-11T01:21:56;20.38;;;18.88;;
55112;SDS011;41006;50.920;3.456;2023-03-11T01:22:28;21.73;;;19.83;;
55112;SDS011;41006;50.920;3.456;2023-03-11T01:22:59;19.92;;;18.63;;
55112;SDS011;41006;50.920;3.456;2023-03-11T01:23:31;31.38;;;20.02;;
55112;SDS011;41006;50.920;3.456;2023-03-11T01:24:04;21.92;;;19.60;;
55112;SDS011;41006;50.920;3.456;2023-03-11T01:24:36;20.92;;;18.88;;
55112;SDS011;41006;50.920;3.456;2023-03-11T01:25:07;21.38;;;19.20;;
55112;SDS011;41006;50.920;3.456;2023-03-11T01:25:41;20.13;;;18.42;;
55112;SDS011;41006;50.920;3.456;2023-03-11T01:26:12;19.98;;;18.45;;
55112;SDS011;41006;50.920;3.456;2023-03-11T01:26:43;20.90;;;18.75;;
55112;SDS011;41006;50.920;3.456;2023-03-11T01:27:16;21.00;;;19.08;;
55112;SDS011;41006;50.920;3.456;2023-03-11T01:27:46;20.00;;;18.33;;
55112;SDS011;41006;50.920;3.456;2023-03-11T01:28:16;21.17;;;19.25;;
55112;SDS011;41006;50.920;3.456;2023-03-11T01:28:47;22.08;;;20.20;;
55112;SDS011;41006;50.920;3.456;2023-03-11T01:29:17;20.58;;;19.20;;
55112;SDS011;41006;50.920;3.456;2023-03-11T01:29:47;21.95;;;19.83;;
55112;SDS011;41006;50.920;3.456;2023-03-11T01:30:21;20.75;;;19.13;;
55112;SDS011;41006;50.920;3.456;2023-03-11T01:30:54;20.35;;;18.33;;
55112;SDS011;41006;50.920;3.456;2023-03-11T01:31:26;20.50;;;19.00;;
55112;SDS011;41006;50.920;3.456;2023-03-11T01:31:59;21.02;;;18.85;;
55112;SDS011;41006;50.920;3.456;2023-03-11T01:32:29;20.27;;;18.33;;
55112;SDS011;41006;50.920;3.456;2023-03-11T01:32:59;20.23;;;18.40;;
55112;SDS011;41006;50.920;3.456;2023-03-11T01:33:32;19.67;;;18.05;;
55112;SDS011;41006;50.920;3.456;2023-03-11T01:34:02;20.15;;;18.00;;
55112;SDS011;41006;50.920;3.456;2023-03-11T01:34:35;22.05;;;20.17;;
55112;SDS011;41006;50.920;3.456;2023-03-11T01:35:05;19.40;;;17.73;;
55112;SDS011;41006;50.920;3.456;2023-03-11T01:35:36;19.73;;;18.10;;
55112;SDS011;41006;50.920;3.456;2023-03-11T01:36:08;18.13;;;16.52;;
55112;SDS011;41006;50.920;3.456;2023-03-11T01:36:39;19.70;;;18.20;;
55112;SDS011;41006;50.920;3.456;2023-03-11T01:37:09;20.15;;;18.55;;
55112;SDS011;41006;50.920;3.456;2023-03-11T01:37:39;20.92;;;18.90;;
55112;SDS011;41006;50.920;3.456;2023-03-11T01:38:10;20.58;;;18.40;;
55112;SDS011;41006;50.920;3.456;2023-03-11T01:38:42;20.17;;;18.23;;
55112;SDS011;41006;50.920;3.456;2023-03-11T01:39:13;20.08;;;18.15;;
55112;SDS011;41006;50.920;3.456;2023-03-11T01:39:43;19.90;;;17.92;;
55112;SDS011;41006;50.920;3.456;2023-03-11T01:40:15;19.02;;;17.73;;
55112;SDS011;41006;50.920;3.456;2023-03-11T01:40:47;20.27;;;18.52;;
55112;SDS011;41006;50.920;3.456;2023-03-11T01:41:21;21.38;;;18.33;;
55112;SDS011;41006;50.920;3.456;2023-03-11T01:41:51;19.23;;;17.48;;
55112;SDS011;41006;50.920;3.456;2023-03-11T01:42:22;21.17;;;19.33;;
55112;SDS011;41006;50.920;3.456;2023-03-11T01:42:54;21.73;;;19.45;;
55112;SDS011;41006;50.920;3.456;2023-03-11T01:44:04;22.95;;;20.58;;
55112;SDS011;41006;50.920;3.456;2023-03-11T01:44:35;21.88;;;20.00;;
55112;SDS011;41006;50.920;3.456;2023-03-11T01:46:26;22.10;;;18.92;;
55112;SDS011;41006;50.920;3.456;2023-03-11T01:48:01;22.05;;;20.10;;
55112;SDS011;41006;50.920;3.456;2023-03-11T01:48:31;24.15;;;21.75;;
55112;SDS011;41006;50.920;3.456;2023-03-11T01:49:03;23.15;;;20.83;;
55112;SDS011;41006;50.920;3.456;2023-03-11T01:49:33;23.80;;;21.75;;
55112;SDS011;41006;50.920;3.456;2023-03-11T01:50:04;22.98;;;20.90;;
55112;SDS011;41006;50.920;3.456;2023-03-11T01:50:37;22.70;;;20.67;;
55112;SDS011;41006;50.920;3.456;2023-03-11T01:51:11;24.13;;;22.33;;
55112;SDS011;41006;50.920;3.456;2023-03-11T01:51:42;23.77;;;22.10;;
55112;SDS011;41006;50.920;3.456;2023-03-11T01:52:15;33.33;;;23.75;;
55112;SDS011;41006;50.920;3.456;2023-03-11T01:52:45;24.35;;;22.58;;
55112;SDS011;41006;50.920;3.456;2023-03-11T01:53:16;24.67;;;22.08;;
55112;SDS011;41006;50.920;3.456;2023-03-11T01:53:48;24.02;;;21.92;;
55112;SDS011;41006;50.920;3.456;2023-03-11T01:54:54;22.55;;;21.23;;
55112;SDS011;41006;50.920;3.456;2023-03-11T01:55:25;23.75;;;21.73;;
55112;SDS011;41006;50.920;3.456;2023-03-11T01:56:00;24.70;;;22.60;;
55112;SDS011;41006;50.920;3.456;2023-03-11T01:56:34;24.13;;;22.38;;
55112;SDS011;41006;50.920;3.456;2023-03-11T01:57:08;23.70;;;21.70;;
55112;SDS011;41006;50.920;3.456;2023-03-11T01:57:41;23.95;;;21.98;;
55112;SDS011;41006;50.920;3.456;2023-03-11T01:58:16;25.58;;;23.15;;
55112;SDS011;41006;50.920;3.456;2023-03-11T01:58:51;24.63;;;22.75;;
55112;SDS011;41006;50.920;3.456;2023-03-11T01:59:28;25.05;;;23.27;;
55112;SDS011;41006;50.920;3.456;2023-03-11T02:00:03;25.30;;;22.90;;
55112;SDS011;41006;50.920;3.456;2023-03-11T02:00:39;23.88;;;22.00;;
55112;SDS011;41006;50.920;3.456;2023-03-11T02:01:13;23.75;;;21.63;;
55112;SDS011;41006;50.920;3.456;2023-03-11T02:01:51;26.33;;;22.55;;
55112;SDS011;41006;50.920;3.456;2023-03-11T02:02:29;24.90;;;22.73;;
55112;SDS011;41006;50.920;3.456;2023-03-11T02:03:01;24.67;;;22.60;;
55112;SDS011;41006;50.920;3.456;2023-03-11T02:03:37;24.23;;;22.38;;
55112;SDS011;41006;50.920;3.456;2023-03-11T02:04:07;24.42;;;22.20;;
55112;SDS011;41006;50.920;3.456;2023-03-11T02:04:37;23.77;;;22.17;;
55112;SDS011;41006;50.920;3.456;2023-03-11T02:05:09;24.05;;;22.33;;
55112;SDS011;41006;50.920;3.456;2023-03-11T02:05:40;27.20;;;24.38;;
55112;SDS011;41006;50.920;3.456;2023-03-11T02:06:13;25.15;;;23.08;;
55112;SDS011;41006;50.920;3.456;2023-03-11T02:06:44;24.80;;;22.63;;
55112;SDS011;41006;50.920;3.456;2023-03-11T02:07:17;25.42;;;23.33;;
55112;SDS011;41006;50.920;3.456;2023-03-11T02:07:50;26.25;;;23.98;;
55112;SDS011;41006;50.920;3.456;2023-03-11T02:08:23;26.17;;;23.85;;
55112;SDS011;41006;50.920;3.456;2023-03-11T02:08:54;25.65;;;23.45;;
55112;SDS011;41006;50.920;3.456;2023-03-11T02:09:24;23.92;;;22.08;;
55112;SDS011;41006;50.920;3.456;2023-03-11T02:09:59;23.67;;;21.92;;
55112;SDS011;41006;50.920;3.456;2023-03-11T02:10:31;26.38;;;22.27;;
55112;SDS011;41006;50.920;3.456;2023-03-11T02:11:02;23.15;;;21.42;;
55112;SDS011;41006;50.920;3.456;2023-03-11T02:11:32;23.85;;;21.63;;
55112;SDS011;41006;50.920;3.456;2023-03-11T02:12:05;23.55;;;21.33;;
55112;SDS011;41006;50.920;3.456;2023-03-11T02:12:36;23.45;;;21.23;;
55112;SDS011;41006;50.920;3.456;2023-03-11T02:13:07;22.98;;;20.70;;
55112;SDS011;41006;50.920;3.456;2023-03-11T02:13:40;22.88;;;20.98;;
55112;SDS011;41006;50.920;3.456;2023-03-11T02:14:11;22.13;;;19.73;;
55112;SDS011;41006;50.920;3.456;2023-03-11T02:14:45;23.55;;;21.58;;
55112;SDS011;41006;50.920;3.456;2023-03-11T02:15:16;22.25;;;20.80;;
55112;SDS011;41006;50.920;3.456;2023-03-11T02:15:46;22.38;;;20.23;;
55112;SDS011;41006;50.920;3.456;2023-03-11T02:16:17;21.45;;;19.52;;
55112;SDS011;41006;50.920;3.456;2023-03-11T02:16:47;21.85;;;19.15;;
55112;SDS011;41006;50.920;3.456;2023-03-11T02:17:19;20.08;;;18.15;;
55112;SDS011;41006;50.920;3.456;2023-03-11T02:17:49;20.85;;;18.90;;
55112;SDS011;41006;50.920;3.456;2023-03-11T02:18:20;21.00;;;18.98;;
55112;SDS011;41006;50.920;3.456;2023-03-11T02:18:51;21.58;;;19.45;;
55112;SDS011;41006;50.920;3.456;2023-03-11T02:21:46;20.80;;;19.13;;
55112;SDS011;41006;50.920;3.456;2023-03-11T02:22:16;20.00;;;17.95;;
55112;SDS011;41006;50.920;3.456;2023-03-11T02:22:50;20.10;;;18.13;;
55112;SDS011;41006;50.920;3.456;2023-03-11T02:23:23;19.52;;;17.88;;
55112;SDS011;41006;50.920;3.456;2023-03-11T02:25:04;20.73;;;18.88;;
55112;SDS011;41006;50.920;3.456;2023-03-11T02:25:40;19.88;;;18.00;;
55112;SDS011;41006;50.920;3.456;2023-03-11T02:26:16;19.02;;;17.10;;
55112;SDS011;41006;50.920;3.456;2023-03-11T02:27:21;20.48;;;16.90;;
55112;SDS011;41006;50.920;3.456;2023-03-11T02:27:52;18.58;;;16.63;;
55112;SDS011;41006;50.920;3.456;2023-03-11T02:28:23;19.67;;;17.80;;
55112;SDS011;41006;50.920;3.456;2023-03-11T02:28:54;19.08;;;17.05;;
55112;SDS011;41006;50.920;3.456;2023-03-11T02:29:27;18.00;;;16.70;;
55112;SDS011;41006;50.920;3.456;2023-03-11T02:29:58;20.35;;;18.40;;
55112;SDS011;41006;50.920;3.456;2023-03-11T02:30:31;19.02;;;17.27;;
55112;SDS011;41006;50.920;3.456;2023-03-11T02:31:04;20.15;;;17.98;;
55112;SDS011;41006;50.920;3.456;2023-03-11T02:31:36;18.98;;;17.25;;
55112;SDS011;41006;50.920;3.456;2023-03-11T02:32:07;19.52;;;17.58;;
55112;SDS011;41006;50.920;3.456;2023-03-11T02:32:38;18.88;;;17.10;;
55112;SDS011;41006;50.920;3.456;2023-03-11T02:33:11;19.98;;;17.80;;
55112;SDS011;41006;50.920;3.456;2023-03-11T02:33:42;18.25;;;16.55;;
55112;SDS011;41006;50.920;3.456;2023-03-11T02:34:16;19.10;;;17.27;;
55112;SDS011;41006;50.920;3.456;2023-03-11T02:34:49;20.63;;;18.10;;
55112;SDS011;41006;50.920;3.456;2023-03-11T02:35:19;18.58;;;16.60;;
55112;SDS011;41006;50.920;3.456;2023-03-11T02:35:51;17.75;;;16.08;;
55112;SDS011;41006;50.920;3.456;2023-03-11T02:36:32;16.35;;;14.90;;
55112;SDS011;41006;50.920;3.456;2023-03-11T02:37:06;16.65;;;15.18;;
55112;SDS011;41006;50.920;3.456;2023-03-11T02:37:36;17.23;;;15.68;;
55112;SDS011;41006;50.920;3.456;2023-03-11T02:38:12;19.02;;;16.70;;
55112;SDS011;41006;50.920;3.456;2023-03-11T02:38:44;18.38;;;16.83;;
55112;SDS011;41006;50.920;3.456;2023-03-11T02:39:27;19.10;;;17.17;;
55112;SDS011;41006;50.920;3.456;2023-03-11T02:40:51;22.52;;;17.30;;
55112;SDS011;41006;50.920;3.456;2023-03-11T02:41:24;18.52;;;16.88;;
55112;SDS011;41006;50.920;3.456;2023-03-11T02:41:57;17.55;;;15.80;;
55112;SDS011;41006;50.920;3.456;2023-03-11T02:42:30;20.20;;;17.33;;
55112;SDS011;41006;50.920;3.456;2023-03-11T02:43:05;18.05;;;16.25;;
55112;SDS011;41006;50.920;3.456;2023-03-11T02:43:42;17.08;;;15.80;;
55112;SDS011;41006;50.920;3.456;2023-03-11T02:44:15;17.52;;;15.95;;
55112;SDS011;41006;50.920;3.456;2023-03-11T02:44:46;17.80;;;15.95;;
55112;SDS011;41006;50.920;3.456;2023-03-11T02:45:18;17.33;;;15.73;;
55112;SDS011;41006;50.920;3.456;2023-03-11T02:45:49;17.42;;;15.63;;
55112;SDS011;41006;50.920;3.456;2023-03-11T02:46:23;16.45;;;13.43;;
55112;SDS011;41006;50.920;3.456;2023-03-11T02:46:53;15.30;;;14.00;;
55112;SDS011;41006;50.920;3.456;2023-03-11T02:47:26;15.98;;;13.93;;
55112;SDS011;41006;50.920;3.456;2023-03-11T02:47:57;18.42;;;15.15;;
55112;SDS011;41006;50.920;3.456;2023-03-11T02:48:28;16.08;;;14.52;;
55112;SDS011;41006;50.920;3.456;2023-03-11T02:48:59;15.80;;;14.40;;
55112;SDS011;41006;50.920;3.456;2023-03-11T02:49:31;16.67;;;15.20;;
55112;SDS011;41006;50.920;3.456;2023-03-11T02:50:02;17.92;;;14.32;;
55112;SDS011;41006;50.920;3.456;2023-03-11T02:50:33;15.75;;;14.15;;
55112;SDS011;41006;50.920;3.456;2023-03-11T02:51:08;15.60;;;14.35;;
55112;SDS011;41006;50.920;3.456;2023-03-11T02:51:38;17.77;;;15.95;;
55112;SDS011;41006;50.920;3.456;2023-03-11T02:52:09;17.35;;;15.60;;
55112;SDS011;41006;50.920;3.456;2023-03-11T02:52:41;17.70;;;16.20;;
55112;SDS011;41006;50.920;3.456;2023-03-11T02:53:14;19.27;;;17.27;;
55112;SDS011;41006;50.920;3.456;2023-03-11T02:53:50;22.55;;;18.27;;
55112;SDS011;41006;50.920;3.456;2023-03-11T02:54:23;19.02;;;16.65;;
55112;SDS011;41006;50.920;3.456;2023-03-11T02:54:53;17.42;;;16.00;;
55112;SDS011;41006;50.920;3.456;2023-03-11T02:55:25;19.92;;;17.55;;
55112;SDS011;41006;50.920;3.456;2023-03-11T02:55:55;19.75;;;17.40;;
55112;SDS011;41006;50.920;3.456;2023-03-11T02:56:26;19.60;;;17.40;;
55112;SDS011;41006;50.920;3.456;2023-03-11T02:56:56;24.17;;;18.05;;
55112;SDS011;41006;50.920;3.456;2023-03-11T02:57:28;20.80;;;17.63;;
55112;SDS011;41006;50.920;3.456;2023-03-11T02:58:02;17.90;;;16.52;;
55112;SDS011;41006;50.920;3.456;2023-03-11T02:58:34;18.58;;;16.95;;
55112;SDS011;41006;50.920;3.456;2023-03-11T02:59:05;19.10;;;17.42;;
55112;SDS011;41006;50.920;3.456;2023-03-11T02:59:35;18.80;;;17.25;;
55112;SDS011;41006;50.920;3.456;2023-03-11T03:00:06;20.70;;;18.83;;
55112;SDS011;41006;50.920;3.456;2023-03-11T03:00:47;17.45;;;15.88;;
55112;SDS011;41006;50.920;3.456;2023-03-11T03:01:18;19.50;;;17.98;;
55112;SDS011;41006;50.920;3.456;2023-03-11T03:01:48;20.27;;;18.40;;
55112;SDS011;41006;50.920;3.456;2023-03-11T03:02:18;20.00;;;18.27;;
55112;SDS011;41006;50.920;3.456;2023-03-11T03:02:49;19.95;;;18.00;;
55112;SDS011;41006;50.920;3.456;2023-03-11T03:03:21;19.75;;;17.83;;
55112;SDS011;41006;50.920;3.456;2023-03-11T03:03:51;21.65;;;18.85;;
55112;SDS011;41006;50.920;3.456;2023-03-11T03:04:21;21.50;;;19.65;;
55112;SDS011;41006;50.920;3.456;2023-03-11T03:04:51;28.75;;;20.77;;
55112;SDS011;41006;50.920;3.456;2023-03-11T03:05:22;22.15;;;20.15;;
55112;SDS011;41006;50.920;3.456;2023-03-11T03:05:55;20.83;;;19.10;;
55112;SDS011;41006;50.920;3.456;2023-03-11T03:06:28;21.10;;;19.23;;
55112;SDS011;41006;50.920;3.456;2023-03-11T03:06:58;22.23;;;20.25;;
55112;SDS011;41006;50.920;3.456;2023-03-11T03:07:28;21.55;;;19.65;;
55112;SDS011;41006;50.920;3.456;2023-03-11T03:07:58;21.33;;;19.60;;
55112;SDS011;41006;50.920;3.456;2023-03-11T03:08:29;20.67;;;19.38;;
55112;SDS011;41006;50.920;3.456;2023-03-11T03:09:01;22.05;;;19.67;;
55112;SDS011;41006;50.920;3.456;2023-03-11T03:09:31;21.00;;;19.60;;
55112;SDS011;41006;50.920;3.456;2023-03-11T03:10:05;20.40;;;18.90;;
55112;SDS011;41006;50.920;3.456;2023-03-11T03:10:35;20.48;;;18.88;;
55112;SDS011;41006;50.920;3.456;2023-03-11T03:11:05;22.98;;;21.08;;
55112;SDS011;41006;50.920;3.456;2023-03-11T03:11:36;22.27;;;20.63;;
55112;SDS011;41006;50.920;3.456;2023-03-11T03:12:06;22.30;;;20.42;;
55112;SDS011;41006;50.920;3.456;2023-03-11T03:12:36;21.02;;;19.20;;
55112;SDS011;41006;50.920;3.456;2023-03-11T03:13:07;21.67;;;19.50;;
55112;SDS011;41006;50.920;3.456;2023-03-11T03:13:37;19.70;;;18.00;;
55112;SDS011;41006;50.920;3.456;2023-03-11T03:14:08;21.02;;;19.20;;
55112;SDS011;41006;50.920;3.456;2023-03-11T03:14:38;21.02;;;19.20;;